Time;durP1;ratioP1;P1;durP2;ratioP2;P2;SDS_P1;SDS_P2;PMS_P1;PMS_P2;Temp;Humidity;BMP_temperature;BMP_pressure;BME280_temperature;BME280_humidity;BME280_pressure;Samples;Min_cycle;Max_cycle;Signal;HPM_P1;HPM_P2
2022/04/04 00:02:19;;;;;;;;;;;;;;;9.62;63.72;100552.16;4421377;32;20410;-68
2022/04/04 00:04:45;;;;;;;;;;;;;;;9.81;63.20;100554.12;4417308;32;19989;-68
2022/04/04 00:07:11;;;;;;;;;;;;;;;9.73;64.23;100549.88;4418690;32;20395;-68
2022/04/04 00:09:37;;;;;;;;;;;;;;;9.80;64.93;100535.69;4419413;32;20351;-68
2022/04/04 00:12:03;;;;;;;;;;;;;;;9.82;64.63;100536.00;4420368;32;19953;-68
2022/04/04 00:14:29;;;;;;;;;;;;;;;10.04;64.16;100525.81;4418326;32;19949;-68
2022/04/04 00:16:54;;;;;;;;;;;;;;;10.01;62.67;100520.31;4415865;32;20280;-69
2022/04/04 00:19:22;;;;;;;;;;;;;;;9.69;64.37;100512.66;4419100;32;19998;-68
2022/04/04 00:21:48;;;;;;;;;;;;;;;9.63;64.32;100514.41;4416192;32;19953;-68
2022/04/04 00:24:13;;;;;;;;;;;;;;;9.56;64.84;100502.53;4418577;32;19993;-68
2022/04/04 00:26:39;;;;;;;;;;;;;;;9.54;64.55;100508.59;4420587;32;20013;-68
2022/04/04 00:29:04;;;;;;;;;;;;;;;9.23;65.87;100490.47;4417287;32;19991;-68
2022/04/04 00:31:30;;;;;;;;;;;;;;;9.36;65.74;100485.75;4414354;32;20001;-68
2022/04/04 00:33:56;;;;;;;;;;;;;;;9.35;66.16;100475.75;4418219;32;19981;-68
2022/04/04 00:36:22;;;;;;;;;;;;;;;9.44;66.08;100475.13;4421630;32;19976;-68
2022/04/04 00:38:47;;;;;;;;;;;;;;;9.49;66.44;100486.66;4418545;32;19954;-68
2022/04/04 00:41:15;;;;;;;;;;;;;;;9.55;66.62;100479.25;4417624;32;19976;-68
2022/04/04 00:43:41;;;;;;;;;;;;;;;9.58;66.32;100461.53;4419193;32;20028;-68
2022/04/04 00:46:07;;;;;;;;;;;;;;;9.52;67.36;100457.69;4418800;32;20379;-68
2022/04/04 00:48:34;;;;;;;;;;;;;;;9.20;68.10;100442.81;4418994;32;20334;-68
2022/04/04 00:51:01;;;;;;;;;;;;;;;9.29;67.79;100432.56;4412975;32;20380;-68
2022/04/04 00:53:27;;;;;;;;;;;;;;;9.14;68.85;100439.72;4421986;32;20026;-68
2022/04/04 00:55:53;;;;;;;;;;;;;;;9.35;68.62;100433.63;4420127;32;20888;-68
2022/04/04 00:58:20;;;;;;;;;;;;;;;9.46;68.05;100422.94;4420501;32;19963;-68
2022/04/04 01:00:47;;;;;;;;;;;;;;;9.52;68.11;100398.72;4419471;32;20026;-68
2022/04/04 01:03:13;;;;;;;;;;;;;;;9.53;68.51;100397.47;4414445;32;19950;-68
2022/04/04 01:05:40;;;;;;;;;;;;;;;9.49;68.43;100385.53;4414568;32;19954;-68
2022/04/04 01:08:05;;;;;;;;;;;;;;;9.41;68.90;100366.47;4415427;32;20287;-68
2022/04/04 01:10:31;;;;;;;;;;;;;;;9.28;69.41;100376.84;4416674;32;19968;-68
2022/04/04 01:12:57;;;;;;;;;;;;;;;9.34;69.92;100373.09;4416143;32;19991;-68
2022/04/04 01:15:25;;;;;;;;;;;;;;;9.44;70.05;100355.16;4419423;32;19957;-68
2022/04/04 01:17:51;;;;;;;;;;;;;;;9.57;69.50;100336.38;4417978;32;19964;-68
2022/04/04 01:20:17;;;;;;;;;;;;;;;9.61;69.61;100328.63;4418089;32;20338;-68
2022/04/04 01:22:46;;;;;;;;;;;;;;;9.65;69.92;100336.97;4414876;32;20659;-68
2022/04/04 01:25:11;;;;;;;;;;;;;;;9.73;68.91;100330.72;4416847;32;19991;-68
2022/04/04 01:27:39;;;;;;;;;;;;;;;9.71;69.76;100316.31;4414957;32;20328;-68
2022/04/04 01:30:07;;;;;;;;;;;;;;;9.61;70.04;100320.19;4416099;32;19991;-68
2022/04/04 01:32:34;;;;;;;;;;;;;;;9.65;70.49;100303.25;4415450;32;20061;-68
2022/04/04 01:34:59;;;;;;;;;;;;;;;9.74;69.77;100318.25;4420219;32;20366;-68
2022/04/04 01:37:26;;;;;;;;;;;;;;;9.83;70.08;100292.31;4417751;32;19953;-68
2022/04/04 01:39:51;;;;;;;;;;;;;;;9.90;69.64;100300.53;4419636;32;19970;-68
2022/04/04 01:42:17;;;;;;;;;;;;;;;9.99;69.63;100284.63;4417262;32;20006;-68
2022/04/04 01:44:43;;;;;;;;;;;;;;;10.13;69.51;100285.47;4413569;32;19994;-68
2022/04/04 01:47:08;;;;;;;;;;;;;;;10.10;69.50;100276.66;4419535;32;19957;-68
2022/04/04 01:49:34;;;;;;;;;;;;;;;9.98;70.07;100262.56;4416983;32;19968;-68
2022/04/04 01:51:59;;;;;;;;;;;;;;;9.95;70.38;100269.84;4416418;32;19961;-68
2022/04/04 01:54:25;;;;;;;;;;;;;;;9.86;70.80;100254.91;4418996;32;20028;-68
2022/04/04 01:56:51;;;;;;;;;;;;;;;9.65;71.79;100233.00;4421568;32;19987;-68
2022/04/04 01:59:16;;;;;;;;;;;;;;;9.60;71.99;100233.53;4418327;32;21602;-68
2022/04/04 02:01:42;;;;;;;;;;;;;;;9.49;72.89;100242.31;4419020;32;19993;-68
2022/04/04 02:04:08;;;;;;;;;;;;;;;9.33;73.92;100221.91;4415027;32;20248;-68
2022/04/04 02:06:35;;;;;;;;;;;;;;;9.47;73.42;100218.69;4416543;32;20336;-68
2022/04/04 02:09:00;;;;;;;;;;;;;;;9.40;74.22;100216.06;4417164;32;19957;-68
2022/04/04 02:11:26;;;;;;;;;;;;;;;9.83;72.71;100208.00;4412969;32;19981;-68
2022/04/04 02:13:52;;;;;;;;;;;;;;;9.49;73.79;100213.41;4420335;32;20006;-68
2022/04/04 02:16:18;;;;;;;;;;;;;;;9.38;74.30;100216.50;4413897;32;19965;-67
2022/04/04 02:18:43;;;;;;;;;;;;;;;9.49;74.26;100219.84;4417714;32;20202;-67
2022/04/04 02:21:09;;;;;;;;;;;;;;;9.59;74.24;100201.09;4417740;32;19949;-67
2022/04/04 02:23:35;;;;;;;;;;;;;;;9.64;74.04;100206.16;4415280;32;19986;-67
2022/04/04 02:26:00;;;;;;;;;;;;;;;9.61;73.98;100196.59;4416142;32;20267;-68
2022/04/04 02:28:26;;;;;;;;;;;;;;;9.84;73.29;100182.28;4415935;32;19981;-68
2022/04/04 02:30:52;;;;;;;;;;;;;;;9.80;73.29;100189.22;4402644;32;19971;-68
2022/04/04 02:33:19;;;;;;;;;;;;;;;10.10;72.57;100183.91;4416243;32;20049;-68
2022/04/04 02:35:45;;;;;;;;;;;;;;;10.24;72.01;100173.47;4401677;32;19953;-68
2022/04/04 02:38:11;;;;;;;;;;;;;;;10.13;72.25;100171.00;4418980;32;19981;-68
2022/04/04 02:40:37;;;;;;;;;;;;;;;10.32;71.87;100163.53;4416961;32;20045;-68
2022/04/04 02:43:03;;;;;;;;;;;;;;;10.22;71.77;100162.66;4415740;32;20297;-67
2022/04/04 02:45:29;;;;;;;;;;;;;;;10.20;71.84;100155.91;4418559;32;20306;-68
2022/04/04 02:47:55;;;;;;;;;;;;;;;10.13;72.30;100157.69;4413120;32;20405;-68
2022/04/04 02:50:21;;;;;;;;;;;;;;;11.60;67.30;100160.22;4420346;32;19958;-68
2022/04/04 02:52:47;;;;;;;;;;;;;;;12.06;65.11;100170.56;4415767;32;19997;-67
2022/04/04 02:57:58;;;;;;;;;;;;;;;12.30;63.75;100147.47;4420735;32;20348;-67
2022/04/04 03:00:24;;;;;;;;;;;;;;;12.52;63.43;100137.66;4419153;32;19953;-68
2022/04/04 03:02:51;;;;;;;;;;;;;;;12.78;62.73;100133.34;4417381;32;19958;-68
2022/04/04 03:05:17;;;;;;;;;;;;;;;12.47;63.51;100143.13;4419682;32;19988;-67
2022/04/04 03:07:43;;;;;;;;;;;;;;;11.94;64.95;100131.94;4419725;32;19981;-67
2022/04/04 03:10:09;;;;;;;;;;;;;;;11.95;65.72;100127.09;4420714;32;19981;-67
2022/04/04 03:12:42;;;;;;;;;;;;;;;12.30;64.36;100113.62;4419226;32;19957;-67
2022/04/04 03:15:08;;;;;;;;;;;;;;;12.51;63.87;100116.34;4416041;32;20123;-67
2022/04/04 03:17:34;;;;;;;;;;;;;;;12.26;64.78;100124.25;4419392;32;19976;-67
2022/04/04 03:20:00;;;;;;;;;;;;;;;12.02;65.63;100118.34;4416625;32;20327;-67
2022/04/04 03:22:26;;;;;;;;;;;;;;;12.09;65.57;100124.50;4420214;32;20265;-67
2022/04/04 03:24:52;;;;;;;;;;;;;;;12.34;64.97;100129.16;4421436;32;20002;-67
2022/04/04 03:27:18;;;;;;;;;;;;;;;12.37;64.90;100116.16;4419234;32;19968;-67
2022/04/04 03:29:44;;;;;;;;;;;;;;;12.45;64.52;100111.78;4418818;32;19953;-67
2022/04/04 03:32:10;;;;;;;;;;;;;;;12.56;64.20;100112.13;4418429;32;19953;-67
2022/04/04 03:34:35;;;;;;;;;;;;;;;11.15;67.95;100106.38;4417673;32;19975;-67
2022/04/04 03:37:01;;;;;;;;;;;;;;;11.80;66.64;100101.50;4405104;32;19953;-67
2022/04/04 03:39:27;;;;;;;;;;;;;;;12.40;65.36;100099.06;4423443;32;20020;-67
2022/04/04 03:41:54;;;;;;;;;;;;;;;11.81;66.07;100105.09;4422293;32;19984;-67
2022/04/04 03:44:21;;;;;;;;;;;;;;;12.65;64.35;100100.84;4422291;32;19968;-68
2022/04/04 03:46:46;;;;;;;;;;;;;;;12.71;64.12;100093.31;4420374;32;20032;-67
2022/04/04 03:49:12;;;;;;;;;;;;;;;12.88;63.90;100089.72;4416362;32;20001;-67
2022/04/04 03:51:37;;;;;;;;;;;;;;;11.21;69.50;100067.94;4419559;32;19988;-67
2022/04/04 03:54:03;;;;;;;;;;;;;;;11.14;70.70;100056.16;4421837;32;19986;-67
2022/04/04 03:56:28;;;;;;;;;;;;;;;11.23;70.40;100064.66;4417864;32;19958;-67
2022/04/04 03:58:55;;;;;;;;;;;;;;;12.55;65.90;100068.97;4423305;32;19989;-67
2022/04/04 04:01:22;;;;;;;;;;;;;;;12.35;66.14;100060.19;4416512;32;19987;-67
2022/04/04 04:03:47;;;;;;;;;;;;;;;12.58;65.76;100062.41;4419415;32;20323;-68
2022/04/04 04:06:16;;;;;;;;;;;;;;;12.82;64.77;100057.72;4415460;32;19954;-68
2022/04/04 04:08:45;;;;;;;;;;;;;;;12.77;64.68;100061.19;4405078;32;19999;-68
2022/04/04 04:11:14;;;;;;;;;;;;;;;12.72;65.12;100041.25;4418781;32;19949;-68
2022/04/04 04:13:43;;;;;;;;;;;;;;;12.66;65.11;100040.31;4421443;32;19998;-68
2022/04/04 04:16:09;;;;;;;;;;;;;;;11.89;67.08;100016.19;4418938;32;19965;-68
2022/04/04 04:18:35;;;;;;;;;;;;;;;12.80;65.39;100026.38;4419487;32;19996;-68
2022/04/04 04:21:02;;;;;;;;;;;;;;;12.81;65.33;100015.84;4419654;32;19962;-68
2022/04/04 04:23:27;;;;;;;;;;;;;;;13.03;64.55;100013.66;4409132;32;19961;-69
2022/04/04 04:25:53;;;;;;;;;;;;;;;12.18;66.15;100022.19;4421160;32;20211;-68
2022/04/04 04:28:19;;;;;;;;;;;;;;;11.72;68.75;100000.78;4408048;32;19998;-68
2022/04/04 04:30:45;;;;;;;;;;;;;;;13.23;63.89;99997.75;4417174;32;19957;-68
2022/04/04 04:33:11;;;;;;;;;;;;;;;13.13;64.16;100004.69;4415596;32;19989;-67
2022/04/04 04:35:36;;;;;;;;;;;;;;;12.97;64.80;99995.75;4420818;32;19980;-67
2022/04/04 04:38:02;;;;;;;;;;;;;;;13.19;64.33;99999.97;4418935;32;19957;-68
2022/04/04 04:40:28;;;;;;;;;;;;;;;13.24;64.35;99998.56;4421395;32;19958;-67
2022/04/04 04:42:58;;;;;;;;;;;;;;;13.66;62.97;99991.66;4420897;32;19957;-68
2022/04/04 04:45:23;;;;;;;;;;;;;;;13.67;62.93;99998.88;4419921;32;19998;-68
2022/04/04 04:47:49;;;;;;;;;;;;;;;13.92;62.26;100001.28;4416835;32;20305;-68
2022/04/04 04:50:16;;;;;;;;;;;;;;;13.54;63.70;99998.31;4417619;32;20311;-68
2022/04/04 04:52:42;;;;;;;;;;;;;;;14.02;62.36;99987.84;4423129;32;19989;-69
2022/04/04 04:55:08;;;;;;;;;;;;;;;13.73;63.12;99985.66;4419783;32;20377;-68
2022/04/04 04:57:34;;;;;;;;;;;;;;;13.94;62.78;99978.94;4417406;32;20034;-68
2022/04/04 05:00:03;;;;;;;;;;;;;;;13.98;62.81;99970.28;4420156;32;20077;-68
2022/04/04 05:02:29;;;;;;;;;;;;;;;13.88;63.19;99966.75;4420365;32;20323;-68
2022/04/04 05:04:54;;;;;;;;;;;;;;;13.59;64.37;99958.06;4413780;32;20020;-68
2022/04/04 05:07:20;;;;;;;;;;;;;;;13.93;63.00;99963.25;4415787;32;19972;-68
2022/04/04 05:09:46;;;;;;;;;;;;;;;13.97;62.82;99957.41;4416365;32;19985;-68
2022/04/04 05:12:12;;;;;;;;;;;;;;;13.72;64.24;99955.03;4419952;32;19997;-68
2022/04/04 05:14:40;;;;;;;;;;;;;;;13.86;63.77;99955.13;4414847;32;20253;-68
2022/04/04 05:17:05;;;;;;;;;;;;;;;13.93;63.57;99954.75;4417659;32;19993;-68
2022/04/04 05:19:31;;;;;;;;;;;;;;;14.11;63.05;99958.75;4418395;32;19957;-68
2022/04/04 05:21:56;;;;;;;;;;;;;;;13.34;64.78;99944.38;4414585;32;19993;-68
2022/04/04 05:24:22;;;;;;;;;;;;;;;12.97;66.83;99934.41;4418410;32;20005;-68
2022/04/04 05:26:48;;;;;;;;;;;;;;;13.70;65.20;99943.41;4420661;32;20354;-68
2022/04/04 05:29:17;;;;;;;;;;;;;;;13.68;65.78;99931.78;4418016;32;20008;-68
2022/04/04 05:31:44;;;;;;;;;;;;;;;13.88;64.97;99941.28;4415985;32;19946;-68
2022/04/04 05:34:09;;;;;;;;;;;;;;;13.98;64.85;99937.12;4415753;32;20361;-68
2022/04/04 05:36:35;;;;;;;;;;;;;;;14.07;64.51;99924.97;4415027;32;19972;-68
2022/04/04 05:39:01;;;;;;;;;;;;;;;12.89;67.26;99924.69;4420857;32;19953;-68
2022/04/04 05:41:27;;;;;;;;;;;;;;;13.66;65.89;99925.84;4420655;32;20012;-67
2022/04/04 05:43:53;;;;;;;;;;;;;;;13.70;65.85;99923.63;4419787;32;19997;-68
2022/04/04 05:46:19;;;;;;;;;;;;;;;13.74;66.07;99910.88;4417471;32;19953;-68
2022/04/04 05:48:46;;;;;;;;;;;;;;;14.04;65.34;99921.06;4416504;32;19989;-68
2022/04/04 05:51:13;;;;;;;;;;;;;;;13.63;65.79;99924.00;4418417;32;19981;-68
2022/04/04 05:53:39;;;;;;;;;;;;;;;13.72;66.34;99909.81;4417787;32;19958;-68
2022/04/04 05:56:05;;;;;;;;;;;;;;;14.15;64.70;99923.34;4422734;32;20350;-68
2022/04/04 05:58:31;;;;;;;;;;;;;;;14.30;64.13;99914.94;4424175;32;19976;-68
2022/04/04 06:00:56;;;;;;;;;;;;;;;14.35;63.88;99919.91;4416406;32;20083;-68
2022/04/04 06:03:22;;;;;;;;;;;;;;;14.52;63.23;99923.88;4420284;32;20378;-68
2022/04/04 06:05:49;;;;;;;;;;;;;;;14.34;63.66;99926.84;4419264;32;19949;-68
2022/04/04 06:08:16;;;;;;;;;;;;;;;14.60;63.59;99911.66;4418201;32;19954;-68
2022/04/04 06:10:45;;;;;;;;;;;;;;;14.63;62.95;99915.59;4405907;32;20013;-68
2022/04/04 06:13:14;;;;;;;;;;;;;;;14.53;63.63;99929.03;4421156;32;20047;-68
2022/04/04 06:15:40;;;;;;;;;;;;;;;13.00;68.94;99932.69;4421440;32;20043;-68
2022/04/04 06:18:06;;;;;;;;;;;;;;;13.08;68.75;99931.13;4412708;32;19962;-68
2022/04/04 06:20:32;;;;;;;;;;;;;;;13.89;64.97;99928.72;4420819;32;19961;-68
2022/04/04 06:22:57;;;;;;;;;;;;;;;14.44;63.14;99936.81;4419324;32;19969;-68
2022/04/04 06:25:23;;;;;;;;;;;;;;;14.37;64.17;99918.19;4423124;32;20010;-68
2022/04/04 06:27:49;;;;;;;;;;;;;;;14.63;63.31;99907.09;4422868;32;19960;-68
2022/04/04 06:30:16;;;;;;;;;;;;;;;14.65;63.08;99905.34;4421131;32;19958;-68
2022/04/04 06:32:43;;;;;;;;;;;;;;;14.64;62.85;99900.94;4418468;32;20003;-68
2022/04/04 06:35:12;;;;;;;;;;;;;;;14.62;62.76;99897.81;4421962;32;20004;-69
2022/04/04 06:37:37;;;;;;;;;;;;;;;14.76;62.33;99904.75;4422738;32;19983;-69
2022/04/04 06:40:04;;;;;;;;;;;;;;;14.93;61.51;99897.34;4421821;32;19957;-68
2022/04/04 06:42:31;;;;;;;;;;;;;;;15.09;61.37;99882.66;4419014;32;20569;-68
2022/04/04 06:44:58;;;;;;;;;;;;;;;14.16;63.98;99876.00;4418048;32;19953;-69
2022/04/04 06:47:23;;;;;;;;;;;;;;;15.04;61.39;99872.81;4419333;32;19962;-69
2022/04/04 06:49:52;;;;;;;;;;;;;;;15.33;60.24;99867.09;4423872;32;20301;-69
2022/04/04 06:52:18;;;;;;;;;;;;;;;15.50;59.60;99865.31;4418061;32;20048;-69
2022/04/04 06:54:43;;;;;;;;;;;;;;;15.68;59.10;99876.41;4419677;32;20335;-69
2022/04/04 06:57:09;;;;;;;;;;;;;;;15.10;61.14;99873.69;4420677;32;19957;-69
2022/04/04 06:59:35;;;;;;;;;;;;;;;14.54;62.34;99856.22;4421613;32;19998;-69
2022/04/04 07:02:00;;;;;;;;;;;;;;;14.11;64.50;99883.12;4416094;32;19957;-69
2022/04/04 07:04:26;;;;;;;;;;;;;;;14.93;62.32;99878.28;4416147;32;20017;-69
2022/04/04 07:06:51;;;;;;;;;;;;;;;15.72;59.65;99877.00;4418085;32;19972;-69
2022/04/04 07:09:17;;;;;;;;;;;;;;;15.80;59.25;99872.47;4419023;32;20377;-69
2022/04/04 07:11:43;;;;;;;;;;;;;;;15.33;61.34;99861.44;4422964;32;20109;-69
2022/04/04 07:14:10;;;;;;;;;;;;;;;15.55;60.23;99858.16;4419169;32;19997;-69
2022/04/04 07:16:36;;;;;;;;;;;;;;;14.64;62.92;99847.16;4422286;32;20009;-69
2022/04/04 07:19:02;;;;;;;;;;;;;;;14.35;64.24;99851.97;4418424;32;19968;-70
2022/04/04 07:21:28;;;;;;;;;;;;;;;15.46;61.37;99859.06;4421273;32;19960;-70
2022/04/04 07:23:54;;;;;;;;;;;;;;;14.33;64.26;99851.69;4421924;32;19961;-70
2022/04/04 07:26:21;;;;;;;;;;;;;;;14.38;64.14;99846.13;4422003;32;19968;-70
2022/04/04 07:28:47;;;;;;;;;;;;;;;14.44;63.68;99849.06;4420861;32;20000;-69
2022/04/04 07:31:14;;;;;;;;;;;;;;;14.06;64.89;99844.19;4424218;32;19991;-70
2022/04/04 07:33:39;;;;;;;;;;;;;;;14.23;64.56;99831.19;4422278;32;20281;-70
2022/04/04 07:36:05;;;;;;;;;;;;;;;14.20;64.70;99840.59;4425625;32;20630;-70
2022/04/04 07:38:31;;;;;;;;;;;;;;;14.12;65.05;99839.44;4422857;32;19993;-70
2022/04/04 07:40:57;;;;;;;;;;;;;;;14.14;65.22;99847.44;4423834;32;19973;-70
2022/04/04 07:43:22;;;;;;;;;;;;;;;14.34;64.88;99830.63;4419884;32;20006;-70
2022/04/04 07:45:47;;;;;;;;;;;;;;;14.27;64.76;99819.69;4420550;32;19942;-70
2022/04/04 07:48:13;;;;;;;;;;;;;;;14.37;64.32;99804.16;4425290;32;20236;-69
2022/04/04 07:50:41;;;;;;;;;;;;;;;14.45;63.94;99794.03;4423114;32;20458;-69
2022/04/04 07:53:07;;;;;;;;;;;;;;;14.54;63.54;99793.94;4417728;32;19999;-70
2022/04/04 07:55:33;;;;;;;;;;;;;;;15.72;59.90;99789.06;4421813;32;19961;-70
2022/04/04 07:57:59;;;;;;;;;;;;;;;14.37;64.07;99787.97;4422477;32;19949;-69
2022/04/04 08:00:24;;;;;;;;;;;;;;;15.74;60.21;99811.28;4421408;32;19992;-69
2022/04/04 08:02:50;;;;;;;;;;;;;;;15.05;61.75;99808.41;4421368;32;19941;-70
2022/04/04 08:05:16;;;;;;;;;;;;;;;15.47;60.47;99798.25;4408552;32;19962;-70
2022/04/04 08:07:44;;;;;;;;;;;;;;;15.76;60.01;99800.19;4419835;32;19964;-70
2022/04/04 08:10:10;;;;;;;;;;;;;;;15.92;59.14;99825.16;4420442;32;19945;-70
2022/04/04 08:12:36;;;;;;;;;;;;;;;15.73;60.37;99809.69;4424713;32;20391;-70
2022/04/04 08:15:02;;;;;;;;;;;;;;;16.35;57.92;99814.81;4418191;32;19960;-70
2022/04/04 08:17:28;;;;;;;;;;;;;;;16.69;56.89;99828.88;4423589;32;19985;-68
2022/04/04 08:19:53;;;;;;;;;;;;;;;16.91;55.91;99831.13;4418864;32;20246;-70
2022/04/04 08:22:22;;;;;;;;;;;;;;;17.32;55.38;99838.16;4419953;32;19968;-70
2022/04/04 08:24:49;;;;;;;;;;;;;;;17.61;54.01;99847.19;4418959;32;19992;-70
2022/04/04 08:27:14;;;;;;;;;;;;;;;17.66;53.55;99828.59;4419129;32;20436;-70
2022/04/04 08:29:40;;;;;;;;;;;;;;;17.24;54.59;99811.47;4416614;32;19968;-70
2022/04/04 08:32:06;;;;;;;;;;;;;;;17.37;54.88;99834.59;4417925;32;20362;-70
2022/04/04 08:34:32;;;;;;;;;;;;;;;17.01;55.37;99841.81;4419865;32;20045;-70
2022/04/04 08:36:58;;;;;;;;;;;;;;;16.98;55.34;99834.31;4419415;32;20001;-70
2022/04/04 08:39:23;;;;;;;;;;;;;;;17.26;54.79;99823.94;4414720;32;20051;-70
2022/04/04 08:41:49;;;;;;;;;;;;;;;17.38;54.20;99814.19;4416578;32;20004;-70
2022/04/04 08:44:15;;;;;;;;;;;;;;;17.52;54.28;99823.88;4420067;32;19968;-70
2022/04/04 08:46:41;;;;;;;;;;;;;;;17.63;53.67;99821.84;4416051;32;19986;-70
2022/04/04 08:49:08;;;;;;;;;;;;;;;17.81;53.81;99844.22;4416233;32;20007;-70
2022/04/04 08:51:34;;;;;;;;;;;;;;;18.02;52.65;99829.78;4415815;32;20284;-70
2022/04/04 08:54:00;;;;;;;;;;;;;;;17.68;53.54;99858.09;4414896;32;20374;-70
2022/04/04 08:56:26;;;;;;;;;;;;;;;17.81;53.35;99849.91;4415610;32;19958;-68
2022/04/04 08:58:52;;;;;;;;;;;;;;;17.73;53.57;99857.34;4416039;32;20009;-70
2022/04/04 09:01:19;;;;;;;;;;;;;;;17.72;53.38;99855.00;4420619;32;20027;-70
2022/04/04 09:03:44;;;;;;;;;;;;;;;17.33;54.28;99837.66;4418030;32;19971;-70
2022/04/04 09:06:10;;;;;;;;;;;;;;;17.41;54.49;99820.91;4418810;32;19996;-70
2022/04/04 09:08:43;;;;;;;;;;;;;;;17.32;54.57;99836.13;4415175;32;19961;-70
2022/04/04 09:11:09;;;;;;;;;;;;;;;17.47;54.10;99833.94;4415250;32;20424;-70
2022/04/04 09:13:34;;;;;;;;;;;;;;;17.24;54.55;99834.22;4420658;32;19961;-70
2022/04/04 09:16:01;;;;;;;;;;;;;;;16.19;57.19;99823.91;4417153;32;20019;-70
2022/04/04 09:18:47;;;;;;;;;;;;;;;16.52;56.30;99816.56;4418880;32;19989;-70
2022/04/04 09:21:20;;;;;;;;;;;;;;;16.83;55.88;99816.59;4416353;32;19990;-70
2022/04/04 09:32:03;;;;;;;;;;;;;;;16.86;56.80;99843.22;3955926;32;15722551;-70
2022/04/04 09:34:28;;;;;;;;;;;;;;;16.86;56.80;99843.22;4429600;32;20002;-70
2022/04/04 09:36:54;;;;;;;;;;;;;;;15.51;60.39;99827.19;4429341;32;19968;-70
2022/04/04 09:39:20;;;;;;;;;;;;;;;15.71;60.26;99838.56;4426126;32;19958;-70
2022/04/04 09:41:45;;;;;;;;;;;;;;;15.50;60.49;99853.22;4428330;32;20379;-70
2022/04/04 09:44:12;;;;;;;;;;;;;;;15.37;60.85;99847.09;4429230;32;20243;-71
2022/04/04 09:46:41;;;;;;;;;;;;;;;15.47;60.69;99845.69;4430359;32;20035;-70
2022/04/04 09:49:08;;;;;;;;;;;;;;;15.61;60.02;99856.19;4428927;32;19985;-70
2022/04/04 09:51:35;;;;;;;;;;;;;;;15.70;59.84;99850.38;4427989;32;20387;-70
2022/04/04 09:54:02;;;;;;;;;;;;;;;15.97;59.42;99852.81;4429794;32;19959;-70
2022/04/04 09:56:28;;;;;;;;;;;;;;;16.05;58.88;99856.81;4428509;32;20003;-70
2022/04/04 09:58:54;;;;;;;;;;;;;;;16.70;57.20;99852.38;4428699;32;20469;-70
2022/04/04 10:01:20;;;;;;;;;;;;;;;16.83;56.01;99847.87;4426010;32;20316;-70
2022/04/04 10:03:46;;;;;;;;;;;;;;;16.69;56.64;99837.38;4426705;32;20479;-70
2022/04/04 10:06:12;;;;;;;;;;;;;;;15.52;59.96;99859.16;4431468;32;20304;-70
2022/04/04 10:08:39;;;;;;;;;;;;;;;15.52;60.11;99853.47;4429336;32;19979;-70
2022/04/04 10:11:07;;;;;;;;;;;;;;;16.74;56.62;99856.56;4425309;32;20005;-70
2022/04/04 10:13:33;;;;;;;;;;;;;;;16.90;56.07;99855.94;4427506;32;19988;-70
2022/04/04 10:15:59;;;;;;;;;;;;;;;17.03;55.68;99853.44;4429600;32;19964;-70
2022/04/04 10:18:25;;;;;;;;;;;;;;;16.87;55.70;99856.94;4427795;32;19962;-71
2022/04/04 10:20:53;;;;;;;;;;;;;;;16.34;57.46;99824.59;4424429;32;20020;-72
2022/04/04 10:23:20;;;;;;;;;;;;;;;16.68;56.65;99815.94;4428559;32;19945;-72
2022/04/04 10:25:48;;;;;;;;;;;;;;;15.69;60.52;99852.47;4428444;32;19958;-71
2022/04/04 10:28:25;;;;;;;;;;;;;;;16.68;56.63;99841.50;4429663;32;19961;-71
2022/04/04 10:30:51;;;;;;;;;;;;;;;16.53;57.22;99823.00;4426875;32;20010;-71
2022/04/04 10:33:19;;;;;;;;;;;;;;;16.56;57.14;99834.16;4425516;32;19961;-71
2022/04/04 10:35:57;;;;;;;;;;;;;;;16.69;56.67;99830.94;4428997;32;19945;-71
2022/04/04 10:38:28;;;;;;;;;;;;;;;16.63;56.84;99835.78;4429392;32;19968;-71
2022/04/04 10:40:53;;;;;;;;;;;;;;;15.33;60.78;99841.59;4425761;32;20006;-71
2022/04/04 10:43:20;;;;;;;;;;;;;;;15.29;61.29;99843.84;4417890;32;20514;-71
2022/04/04 10:45:49;;;;;;;;;;;;;;;15.24;61.23;99855.09;4418806;32;19993;-71
2022/04/04 10:48:17;;;;;;;;;;;;;;;15.11;62.05;99831.97;4395524;32;20016;-71
2022/04/04 10:50:43;;;;;;;;;;;;;;;15.36;61.49;99831.31;4419579;32;20349;-71
2022/04/04 10:53:09;;;;;;;;;;;;;;;15.25;61.64;99817.75;4421006;32;19965;-71
2022/04/04 10:58:12;;;;;;;;;;;;;;;15.77;60.60;99844.28;3954992;32;15723517;-71
2022/04/04 11:00:58;;;;;;;;;;;;;;;15.77;60.60;99844.28;4430719;32;20001;-71
2022/04/04 11:03:32;;;;;;;;;;;;;;;15.46;61.45;99827.09;4431498;32;20027;-71
2022/04/04 11:09:05;;;;;;;;;;;;;;;15.24;62.38;99826.75;4432737;32;20444;-70
2022/04/04 11:11:47;;;;;;;;;;;;;;;15.07;63.17;99842.72;4427419;32;20355;-70
2022/04/04 11:14:17;;;;;;;;;;;;;;;14.86;63.99;99835.41;4432071;32;20330;-69
2022/04/04 11:17:03;;;;;;;;;;;;;;;15.05;63.66;99836.75;4433766;32;20035;-69
2022/04/04 11:19:29;;;;;;;;;;;;;;;15.34;62.84;99840.31;4431193;32;19957;-68
2022/04/04 11:21:54;;;;;;;;;;;;;;;15.26;63.08;99838.38;4430467;32;20315;-69
2022/04/04 11:24:20;;;;;;;;;;;;;;;15.36;62.88;99845.47;4432042;32;19965;-70
2022/04/04 11:26:47;;;;;;;;;;;;;;;15.44;62.54;99836.09;4419546;32;19953;-69
2022/04/04 11:29:19;;;;;;;;;;;;;;;15.56;62.27;99842.72;4429917;32;19965;-68
2022/04/04 11:31:46;;;;;;;;;;;;;;;15.38;62.89;99868.50;4428688;32;20231;-68
2022/04/04 11:34:12;;;;;;;;;;;;;;;15.24;63.70;99841.72;4429355;32;19957;-69
2022/04/04 11:36:39;;;;;;;;;;;;;;;15.43;63.31;99839.44;4430906;32;20351;-69
2022/04/04 11:39:08;;;;;;;;;;;;;;;15.42;63.25;99849.22;4434301;32;19977;-69
2022/04/04 11:41:36;;;;;;;;;;;;;;;16.84;59.35;99851.50;4429367;32;19957;-69
2022/04/04 11:44:03;;;;;;;;;;;;;;;15.57;63.12;99853.59;4428508;32;20017;-68
2022/04/04 11:46:28;;;;;;;;;;;;;;;15.12;64.81;99842.00;4430192;32;19961;-69
2022/04/04 11:48:55;;;;;;;;;;;;;;;16.33;61.79;99871.31;4430137;32;19984;-69
2022/04/04 11:51:36;;;;;;;;;;;;;;;15.42;63.85;99854.88;4432226;32;19953;-69
2022/04/04 11:54:03;;;;;;;;;;;;;;;15.39;63.79;99864.37;4430357;32;20412;-69
2022/04/04 11:56:29;;;;;;;;;;;;;;;14.78;66.44;99851.22;4429742;32;19988;-69
2022/04/04 11:58:55;;;;;;;;;;;;;;;14.80;66.85;99865.69;4431459;32;20034;-69
2022/04/04 12:01:26;;;;;;;;;;;;;;;14.94;66.01;99856.41;4430168;32;20332;-69
2022/04/04 12:03:53;;;;;;;;;;;;;;;15.17;65.27;99872.50;4431922;32;20249;-69
2022/04/04 12:06:20;;;;;;;;;;;;;;;16.90;59.09;99875.03;4430764;32;19980;-69
2022/04/04 12:08:45;;;;;;;;;;;;;;;16.89;58.56;99862.91;4423561;32;19979;-69
2022/04/04 12:11:11;;;;;;;;;;;;;;;17.09;57.76;99888.38;4417674;32;19993;-69
2022/04/04 12:13:56;;;;;;;;;;;;;;;17.47;56.75;99890.03;4421156;32;20002;-69
2022/04/04 12:16:23;;;;;;;;;;;;;;;16.81;58.38;99892.28;4427805;32;20299;-69
2022/04/04 12:18:53;;;;;;;;;;;;;;;16.70;58.75;99878.75;4420475;32;20383;-69
2022/04/04 12:21:20;;;;;;;;;;;;;;;16.66;58.92;99900.13;4406520;32;19966;-69
2022/04/04 12:26:34;;;;;;;;;;;;;;;16.68;59.05;99897.53;4421450;32;19957;-69
2022/04/04 12:29:00;;;;;;;;;;;;;;;16.07;60.49;99887.53;4419721;32;19963;-69
2022/04/04 12:31:26;;;;;;;;;;;;;;;15.79;61.94;99878.63;4421241;32;19962;-69
2022/04/04 12:33:53;;;;;;;;;;;;;;;16.89;58.26;99879.16;4415573;32;20250;-69
2022/04/04 12:36:38;;;;;;;;;;;;;;;16.25;59.83;99884.38;4417617;32;20011;-69
2022/04/04 12:39:05;;;;;;;;;;;;;;;15.94;61.17;99873.69;4421015;32;20483;-68
2022/04/04 12:41:49;;;;;;;;;;;;;;;16.30;60.00;99869.47;4421042;32;19985;-70
2022/04/04 12:44:19;;;;;;;;;;;;;;;16.69;58.92;99868.62;4421897;32;19968;-70
2022/04/04 12:46:45;;;;;;;;;;;;;;;17.24;57.28;99863.44;4415230;32;19958;-70
2022/04/04 12:49:13;;;;;;;;;;;;;;;17.61;55.56;99855.72;4400827;32;20303;-68
2022/04/04 12:51:40;;;;;;;;;;;;;;;17.89;54.76;99858.75;4425389;32;20335;-70
2022/04/04 12:54:06;;;;;;;;;;;;;;;18.29;54.06;99866.16;4419531;32;19961;-70
2022/04/04 12:56:46;;;;;;;;;;;;;;;17.98;54.45;99869.88;4424347;32;19963;-70
2022/04/04 12:59:13;;;;;;;;;;;;;;;17.74;54.97;99852.44;4420365;32;19965;-70
2022/04/04 13:01:38;;;;;;;;;;;;;;;17.92;54.32;99859.78;4417224;32;19968;-70
2022/04/04 13:04:21;;;;;;;;;;;;;;;17.44;55.56;99849.16;4420016;32;19988;-68